sensor_id;sensor_type;location;lat;lon;timestamp;pressure;altitude;pressure_sealevel;temperature;humidity
48200;BME280;33990;44.602;10.976;2023-04-22T00:00:34;100977.78;;;19.84;56.35
48200;BME280;33990;44.602;10.976;2023-04-22T00:03:02;100976.94;;;19.84;56.29
48200;BME280;33990;44.602;10.976;2023-04-22T00:05:30;100969.88;;;19.83;56.22
48200;BME280;33990;44.602;10.976;2023-04-22T00:07:58;100967.19;;;19.83;56.16
48200;BME280;33990;44.602;10.976;2023-04-22T00:10:26;100960.97;;;19.82;56.37
48200;BME280;33990;44.602;10.976;2023-04-22T00:12:53;100966.34;;;19.82;55.99
48200;BME280;33990;44.602;10.976;2023-04-22T00:15:20;100970.88;;;19.82;56.07
48200;BME280;33990;44.602;10.976;2023-04-22T00:17:48;100962.81;;;19.82;56.26
48200;BME280;33990;44.602;10.976;2023-04-22T00:20:16;100962.81;;;19.82;56.10
48200;BME280;33990;44.602;10.976;2023-04-22T00:22:43;100961.97;;;19.81;56.09
48200;BME280;33990;44.602;10.976;2023-04-22T00:25:10;100961.97;;;19.81;56.19
48200;BME280;33990;44.602;10.976;2023-04-22T00:27:38;100969.13;;;19.81;56.14
48200;BME280;33990;44.602;10.976;2023-04-22T00:30:05;100963.75;;;19.81;56.02
48200;BME280;33990;44.602;10.976;2023-04-22T00:32:33;100960.22;;;19.80;56.08
48200;BME280;33990;44.602;10.976;2023-04-22T00:35:01;100958.38;;;19.81;56.08
48200;BME280;33990;44.602;10.976;2023-04-22T00:37:28;100956.69;;;19.80;56.07
48200;BME280;33990;44.602;10.976;2023-04-22T00:39:55;100964.75;;;19.80;55.97
48200;BME280;33990;44.602;10.976;2023-04-22T00:42:24;100967.44;;;19.80;56.17
48200;BME280;33990;44.602;10.976;2023-04-22T00:44:52;100967.44;;;19.80;56.11
48200;BME280;33990;44.602;10.976;2023-04-22T00:47:19;100969.13;;;19.81;56.23
48200;BME280;33990;44.602;10.976;2023-04-22T00:49:48;100970.97;;;19.80;56.13
48200;BME280;33990;44.602;10.976;2023-04-22T00:52:16;100973.81;;;19.79;56.05
48200;BME280;33990;44.602;10.976;2023-04-22T00:54:43;100975.50;;;19.80;56.15
48200;BME280;33990;44.602;10.976;2023-04-22T00:57:11;100970.97;;;19.80;55.99
48200;BME280;33990;44.602;10.976;2023-04-22T00:59:38;100973.66;;;19.80;56.02
48200;BME280;33990;44.602;10.976;2023-04-22T01:02:06;100974.66;;;19.79;55.91
48200;BME280;33990;44.602;10.976;2023-04-22T01:04:35;100971.13;;;19.79;56.06
48200;BME280;33990;44.602;10.976;2023-04-22T01:07:02;100968.44;;;19.79;56.14
48200;BME280;33990;44.602;10.976;2023-04-22T01:09:29;100974.66;;;19.79;56.08
48200;BME280;33990;44.602;10.976;2023-04-22T01:11:57;100969.28;;;19.79;56.11
48200;BME280;33990;44.602;10.976;2023-04-22T01:14:24;100964.91;;;19.78;56.11
48200;BME280;33990;44.602;10.976;2023-04-22T01:16:51;100971.13;;;19.79;56.25
48200;BME280;33990;44.602;10.976;2023-04-22T01:19:22;100976.50;;;19.79;56.12
48200;BME280;33990;44.602;10.976;2023-04-22T01:21:50;100972.81;;;19.80;56.21
48200;BME280;33990;44.602;10.976;2023-04-22T01:24:18;100978.19;;;19.80;56.26
48200;BME280;33990;44.602;10.976;2023-04-22T01:26:47;100972.97;;;19.78;56.12
48200;BME280;33990;44.602;10.976;2023-04-22T01:29:14;100975.66;;;19.78;56.23
48200;BME280;33990;44.602;10.976;2023-04-22T01:31:42;100975.66;;;19.78;56.09
48200;BME280;33990;44.602;10.976;2023-04-22T01:34:10;100973.81;;;19.79;56.29
48200;BME280;33990;44.602;10.976;2023-04-22T01:36:37;100974.78;;;19.78;56.26
48200;BME280;33990;44.602;10.976;2023-04-22T01:39:06;100976.50;;;19.79;56.25
48200;BME280;33990;44.602;10.976;2023-04-22T01:41:34;100969.41;;;19.78;56.19
48200;BME280;33990;44.602;10.976;2023-04-22T01:44:02;100969.41;;;19.78;56.21
48200;BME280;33990;44.602;10.976;2023-04-22T01:46:32;100971.13;;;19.79;56.23
48200;BME280;33990;44.602;10.976;2023-04-22T01:48:59;100971.25;;;19.77;56.21
48200;BME280;33990;44.602;10.976;2023-04-22T01:51:27;100968.56;;;19.77;56.23
48200;BME280;33990;44.602;10.976;2023-04-22T01:53:55;100974.78;;;19.78;56.11
48200;BME280;33990;44.602;10.976;2023-04-22T01:56:23;100972.09;;;19.78;56.17
48200;BME280;33990;44.602;10.976;2023-04-22T01:58:50;100972.09;;;19.78;56.13
48200;BME280;33990;44.602;10.976;2023-04-22T02:01:18;100973.94;;;19.77;55.89
48200;BME280;33990;44.602;10.976;2023-04-22T02:03:46;100975.75;;;19.76;56.03
48200;BME280;33990;44.602;10.976;2023-04-22T02:06:13;100975.66;;;19.78;56.04
48200;BME280;33990;44.602;10.976;2023-04-22T02:08:41;100963.19;;;19.77;56.14
48200;BME280;33990;44.602;10.976;2023-04-22T02:11:08;100962.31;;;19.76;55.98
48200;BME280;33990;44.602;10.976;2023-04-22T02:13:37;100963.19;;;19.77;56.26
48200;BME280;33990;44.602;10.976;2023-04-22T02:16:05;100966.84;;;19.76;55.93
48200;BME280;33990;44.602;10.976;2023-04-22T02:18:33;100968.56;;;19.77;56.05
48200;BME280;33990;44.602;10.976;2023-04-22T02:21:01;100965.16;;;19.75;55.92
48200;BME280;33990;44.602;10.976;2023-04-22T02:23:28;100966.00;;;19.75;55.93
48200;BME280;33990;44.602;10.976;2023-04-22T02:25:56;100963.31;;;19.75;56.00
48200;BME280;33990;44.602;10.976;2023-04-22T02:28:23;100966.00;;;19.75;55.96
48200;BME280;33990;44.602;10.976;2023-04-22T02:30:50;100975.75;;;19.76;56.02
48200;BME280;33990;44.602;10.976;2023-04-22T02:33:18;100969.53;;;19.76;56.15
48200;BME280;33990;44.602;10.976;2023-04-22T02:35:45;100968.69;;;19.75;56.11
48200;BME280;33990;44.602;10.976;2023-04-22T02:38:17;100969.69;;;19.74;56.13
48200;BME280;33990;44.602;10.976;2023-04-22T02:40:45;100973.22;;;19.75;55.97
48200;BME280;33990;44.602;10.976;2023-04-22T02:43:13;100973.22;;;19.75;55.99
48200;BME280;33990;44.602;10.976;2023-04-22T02:45:40;100974.06;;;19.75;56.14
48200;BME280;33990;44.602;10.976;2023-04-22T02:48:08;100967.00;;;19.74;56.00
48200;BME280;33990;44.602;10.976;2023-04-22T02:50:35;100958.09;;;19.74;56.20
48200;BME280;33990;44.602;10.976;2023-04-22T02:53:03;100965.16;;;19.75;56.15
48200;BME280;33990;44.602;10.976;2023-04-22T02:55:30;100967.84;;;19.75;56.18
48200;BME280;33990;44.602;10.976;2023-04-22T02:57:57;100967.00;;;19.74;56.00
48200;BME280;33990;44.602;10.976;2023-04-22T03:00:25;100959.78;;;19.75;56.06
48200;BME280;33990;44.602;10.976;2023-04-22T03:02:52;100960.78;;;19.74;56.25
48200;BME280;33990;44.602;10.976;2023-04-22T03:05:25;100962.47;;;19.75;56.23
48200;BME280;33990;44.602;10.976;2023-04-22T03:07:53;100959.94;;;19.73;56.27
48200;BME280;33990;44.602;10.976;2023-04-22T03:10:21;100954.41;;;19.75;56.36
48200;BME280;33990;44.602;10.976;2023-04-22T03:12:49;100958.94;;;19.74;56.28
48200;BME280;33990;44.602;10.976;2023-04-22T03:15:18;100958.09;;;19.74;56.05
48200;BME280;33990;44.602;10.976;2023-04-22T03:17:48;100959.78;;;19.75;56.40
48200;BME280;33990;44.602;10.976;2023-04-22T03:20:17;100951.88;;;19.73;56.45
48200;BME280;33990;44.602;10.976;2023-04-22T03:22:45;100957.22;;;19.73;56.43
48200;BME280;33990;44.602;10.976;2023-04-22T03:25:14;100948.34;;;19.73;56.50
48200;BME280;33990;44.602;10.976;2023-04-22T03:27:46;100942.97;;;19.73;56.53
48200;BME280;33990;44.602;10.976;2023-04-22T03:30:14;100945.66;;;19.73;56.51
48200;BME280;33990;44.602;10.976;2023-04-22T03:32:41;100950.13;;;19.72;56.53
48200;BME280;33990;44.602;10.976;2023-04-22T03:35:26;100945.66;;;19.73;56.59
48200;BME280;33990;44.602;10.976;2023-04-22T03:37:57;100944.75;;;19.72;56.45
48200;BME280;33990;44.602;10.976;2023-04-22T03:40:29;100949.44;;;19.70;55.48
48200;BME280;33990;44.602;10.976;2023-04-22T03:42:56;100948.59;;;19.70;55.59
48200;BME280;33990;44.602;10.976;2023-04-22T03:45:24;100949.56;;;19.69;56.03
48200;BME280;33990;44.602;10.976;2023-04-22T03:48:12;100954.81;;;19.70;56.33
48200;BME280;33990;44.602;10.976;2023-04-22T03:50:45;100948.59;;;19.70;56.39
48200;BME280;33990;44.602;10.976;2023-04-22T03:53:14;100954.81;;;19.70;56.58
48200;BME280;33990;44.602;10.976;2023-04-22T03:55:42;100958.34;;;19.71;56.51
48200;BME280;33990;44.602;10.976;2023-04-22T03:58:12;100956.50;;;19.71;56.57
48200;BME280;33990;44.602;10.976;2023-04-22T04:00:39;100960.88;;;19.72;56.57
48200;BME280;33990;44.602;10.976;2023-04-22T04:03:13;100960.03;;;19.72;56.38
48200;BME280;33990;44.602;10.976;2023-04-22T04:05:43;100963.56;;;19.72;56.46
48200;BME280;33990;44.602;10.976;2023-04-22T04:08:10;100955.50;;;19.72;56.41
48200;BME280;33990;44.602;10.976;2023-04-22T04:10:38;100954.56;;;19.73;56.54
48200;BME280;33990;44.602;10.976;2023-04-22T04:13:05;100957.22;;;19.73;56.66
48200;BME280;33990;44.602;10.976;2023-04-22T04:15:42;100960.88;;;19.72;56.59
48200;BME280;33990;44.602;10.976;2023-04-22T04:18:11;100964.44;;;19.73;56.74
48200;BME280;33990;44.602;10.976;2023-04-22T04:20:38;100965.41;;;19.72;56.56
48200;BME280;33990;44.602;10.976;2023-04-22T04:23:06;100971.63;;;19.72;56.82
48200;BME280;33990;44.602;10.976;2023-04-22T04:25:34;100971.63;;;19.72;56.65
48200;BME280;33990;44.602;10.976;2023-04-22T04:28:10;100969.09;;;19.71;56.57
48200;BME280;33990;44.602;10.976;2023-04-22T04:30:38;100970.91;;;19.70;56.56
48200;BME280;33990;44.602;10.976;2023-04-22T04:33:07;100967.38;;;19.70;56.64
48200;BME280;33990;44.602;10.976;2023-04-22T04:35:38;100977.00;;;19.72;56.46
48200;BME280;33990;44.602;10.976;2023-04-22T04:38:07;100967.38;;;19.70;56.48
48200;BME280;33990;44.602;10.976;2023-04-22T04:40:35;100969.22;;;19.69;56.30
48200;BME280;33990;44.602;10.976;2023-04-22T04:43:10;100977.28;;;19.69;56.42
48200;BME280;33990;44.602;10.976;2023-04-22T04:45:46;100982.66;;;19.69;56.32
48200;BME280;33990;44.602;10.976;2023-04-22T04:48:19;100984.50;;;19.69;56.36
48200;BME280;33990;44.602;10.976;2023-04-22T04:50:52;100986.19;;;19.70;56.27
48200;BME280;33990;44.602;10.976;2023-04-22T04:53:21;100983.63;;;19.68;56.35
48200;BME280;33990;44.602;10.976;2023-04-22T04:55:49;100980.81;;;19.70;56.16
48200;BME280;33990;44.602;10.976;2023-04-22T04:58:21;100978.25;;;19.68;56.23
48200;BME280;33990;44.602;10.976;2023-04-22T05:01:00;100990.72;;;19.69;56.02
48200;BME280;33990;44.602;10.976;2023-04-22T05:03:27;100995.25;;;19.69;56.33
48200;BME280;33990;44.602;10.976;2023-04-22T05:05:55;100983.63;;;19.68;56.03
48200;BME280;33990;44.602;10.976;2023-04-22T05:08:23;100995.25;;;19.69;55.85
48200;BME280;33990;44.602;10.976;2023-04-22T05:10:54;100991.66;;;19.68;56.08
48200;BME280;33990;44.602;10.976;2023-04-22T05:13:22;100991.66;;;19.68;55.94
48200;BME280;33990;44.602;10.976;2023-04-22T05:15:50;100992.56;;;19.69;56.03
48200;BME280;33990;44.602;10.976;2023-04-22T05:18:17;100989.97;;;19.67;56.03
48200;BME280;33990;44.602;10.976;2023-04-22T05:20:45;100993.50;;;19.68;55.75
48200;BME280;33990;44.602;10.976;2023-04-22T05:23:13;100996.19;;;19.68;55.90
48200;BME280;33990;44.602;10.976;2023-04-22T05:25:40;101000.59;;;19.69;55.84
48200;BME280;33990;44.602;10.976;2023-04-22T05:28:10;100999.72;;;19.68;55.88
48200;BME280;33990;44.602;10.976;2023-04-22T05:30:45;100999.72;;;19.68;55.94
48200;BME280;33990;44.602;10.976;2023-04-22T05:33:14;100999.72;;;19.68;55.66
48200;BME280;33990;44.602;10.976;2023-04-22T05:35:41;101007.78;;;19.68;55.71
48200;BME280;33990;44.602;10.976;2023-04-22T05:38:10;101011.47;;;19.67;55.74
48200;BME280;33990;44.602;10.976;2023-04-22T05:40:39;101006.09;;;19.67;55.69
48200;BME280;33990;44.602;10.976;2023-04-22T05:43:09;101016.00;;;19.67;55.71
48200;BME280;33990;44.602;10.976;2023-04-22T05:45:39;101016.84;;;19.67;55.73
48200;BME280;33990;44.602;10.976;2023-04-22T05:48:08;101019.53;;;19.67;55.86
48200;BME280;33990;44.602;10.976;2023-04-22T05:50:41;101017.69;;;19.68;55.80
48200;BME280;33990;44.602;10.976;2023-04-22T05:53:08;101021.22;;;19.68;55.88
48200;BME280;33990;44.602;10.976;2023-04-22T05:55:36;101010.63;;;19.67;55.63
48200;BME280;33990;44.602;10.976;2023-04-22T05:58:06;101015.00;;;19.68;55.73
48200;BME280;33990;44.602;10.976;2023-04-22T06:00:43;101016.84;;;19.67;55.60
48200;BME280;33990;44.602;10.976;2023-04-22T06:03:29;101012.31;;;19.68;55.80
48200;BME280;33990;44.602;10.976;2023-04-22T06:05:56;101023.91;;;19.68;55.84
48200;BME280;33990;44.602;10.976;2023-04-22T06:08:24;101024.78;;;19.69;55.70
48200;BME280;33990;44.602;10.976;2023-04-22T06:10:51;101026.59;;;19.68;55.66
48200;BME280;33990;44.602;10.976;2023-04-22T06:13:20;101023.91;;;19.68;55.64
48200;BME280;33990;44.602;10.976;2023-04-22T06:15:48;101024.78;;;19.69;55.60
48200;BME280;33990;44.602;10.976;2023-04-22T06:18:15;101025.63;;;19.69;55.59
48200;BME280;33990;44.602;10.976;2023-04-22T06:20:43;101034.53;;;19.70;55.52
48200;BME280;33990;44.602;10.976;2023-04-22T06:23:10;101039.91;;;19.70;55.60
48200;BME280;33990;44.602;10.976;2023-04-22T06:25:37;101042.59;;;19.70;55.44
48200;BME280;33990;44.602;10.976;2023-04-22T06:28:05;101048.69;;;19.72;55.42
48200;BME280;33990;44.602;10.976;2023-04-22T06:30:34;101050.50;;;19.71;55.35
48200;BME280;33990;44.602;10.976;2023-04-22T06:33:01;101044.16;;;19.72;55.42
48200;BME280;33990;44.602;10.976;2023-04-22T06:35:29;101044.28;;;19.71;55.42
48200;BME280;33990;44.602;10.976;2023-04-22T06:37:57;101045.88;;;19.73;55.62
48200;BME280;33990;44.602;10.976;2023-04-22T06:40:28;101053.09;;;19.73;55.38
48200;BME280;33990;44.602;10.976;2023-04-22T06:43:06;101052.22;;;19.72;55.24
48200;BME280;33990;44.602;10.976;2023-04-22T06:45:40;101052.22;;;19.72;55.02
48200;BME280;33990;44.602;10.976;2023-04-22T06:48:37;101049.41;;;19.74;55.10
48200;BME280;33990;44.602;10.976;2023-04-22T06:51:20;101053.94;;;19.73;55.41
48200;BME280;33990;44.602;10.976;2023-04-22T06:53:47;101058.31;;;19.74;54.96
48200;BME280;33990;44.602;10.976;2023-04-22T06:56:15;101048.56;;;19.73;55.02
48200;BME280;33990;44.602;10.976;2023-04-22T06:58:42;101056.47;;;19.75;54.89
48200;BME280;33990;44.602;10.976;2023-04-22T07:01:10;101056.47;;;19.75;55.12
48200;BME280;33990;44.602;10.976;2023-04-22T07:03:39;101051.97;;;19.75;54.83
48200;BME280;33990;44.602;10.976;2023-04-22T07:06:10;101058.19;;;19.76;54.73
48200;BME280;33990;44.602;10.976;2023-04-22T07:08:38;101063.44;;;19.78;54.87
48200;BME280;33990;44.602;10.976;2023-04-22T07:11:07;101057.94;;;19.79;54.95
48200;BME280;33990;44.602;10.976;2023-04-22T07:13:57;101055.25;;;19.79;55.28
48200;BME280;33990;44.602;10.976;2023-04-22T07:16:25;101053.28;;;19.81;55.20
48200;BME280;33990;44.602;10.976;2023-04-22T07:18:52;101051.47;;;19.82;55.21
48200;BME280;33990;44.602;10.976;2023-04-22T07:21:21;101053.00;;;19.84;55.37
48200;BME280;33990;44.602;10.976;2023-04-22T07:23:49;101047.53;;;19.86;55.47
48200;BME280;33990;44.602;10.976;2023-04-22T07:26:16;101039.31;;;19.87;55.35
48200;BME280;33990;44.602;10.976;2023-04-22T07:28:45;101036.50;;;19.89;55.20
48200;BME280;33990;44.602;10.976;2023-04-22T07:31:12;101041.75;;;19.90;54.92
48200;BME280;33990;44.602;10.976;2023-04-22T07:33:39;101027.47;;;19.90;54.92
48200;BME280;33990;44.602;10.976;2023-04-22T07:36:07;101025.63;;;19.90;54.99
48200;BME280;33990;44.602;10.976;2023-04-22T07:38:34;101030.16;;;19.90;54.96
48200;BME280;33990;44.602;10.976;2023-04-22T07:41:02;101030.88;;;19.92;54.98
48200;BME280;33990;44.602;10.976;2023-04-22T07:43:29;101027.34;;;19.91;54.86
48200;BME280;33990;44.602;10.976;2023-04-22T07:45:56;101025.38;;;19.93;55.15
48200;BME280;33990;44.602;10.976;2023-04-22T07:48:24;101033.44;;;19.93;54.66
48200;BME280;33990;44.602;10.976;2023-04-22T07:50:51;101029.03;;;19.92;54.68
48200;BME280;33990;44.602;10.976;2023-04-22T07:53:18;101033.44;;;19.93;54.95
48200;BME280;33990;44.602;10.976;2023-04-22T07:55:46;101035.25;;;19.93;54.18
48200;BME280;33990;44.602;10.976;2023-04-22T07:58:16;101031.88;;;19.91;53.54
48200;BME280;33990;44.602;10.976;2023-04-22T08:00:43;101031.13;;;19.89;53.97
48200;BME280;33990;44.602;10.976;2023-04-22T08:03:10;101024.78;;;19.90;54.61
48200;BME280;33990;44.602;10.976;2023-04-22T08:05:38;101029.19;;;19.91;54.80
48200;BME280;33990;44.602;10.976;2023-04-22T08:08:06;101019.13;;;19.93;54.77
48200;BME280;33990;44.602;10.976;2023-04-22T08:10:34;101030.63;;;19.95;54.85
48200;BME280;33990;44.602;10.976;2023-04-22T08:13:02;101026.09;;;19.95;54.77
48200;BME280;33990;44.602;10.976;2023-04-22T08:15:29;101023.25;;;19.97;54.95
48200;BME280;33990;44.602;10.976;2023-04-22T08:17:56;101025.00;;;19.98;54.88
48200;BME280;33990;44.602;10.976;2023-04-22T08:20:24;101031.22;;;19.98;54.83
48200;BME280;33990;44.602;10.976;2023-04-22T08:22:51;101029.38;;;19.99;54.90
48200;BME280;33990;44.602;10.976;2023-04-22T08:25:23;101027.38;;;20.01;55.02
48200;BME280;33990;44.602;10.976;2023-04-22T08:27:50;101029.13;;;20.02;55.07
48200;BME280;33990;44.602;10.976;2023-04-22T08:30:18;101027.28;;;20.03;54.95
48200;BME280;33990;44.602;10.976;2023-04-22T08:32:45;101029.81;;;20.04;55.06
48200;BME280;33990;44.602;10.976;2023-04-22T08:35:13;101024.44;;;20.04;54.87
48200;BME280;33990;44.602;10.976;2023-04-22T08:37:41;101021.75;;;20.04;55.09
48200;BME280;33990;44.602;10.976;2023-04-22T08:40:08;101028.81;;;20.05;55.02
48200;BME280;33990;44.602;10.976;2023-04-22T08:42:36;101018.06;;;20.05;54.95
48200;BME280;33990;44.602;10.976;2023-04-22T08:45:05;101020.75;;;20.05;55.12
48200;BME280;33990;44.602;10.976;2023-04-22T08:47:32;101024.34;;;20.06;55.08
48200;BME280;33990;44.602;10.976;2023-04-22T08:50:02;101017.13;;;20.06;54.90
48200;BME280;33990;44.602;10.976;2023-04-22T08:52:30;101015.38;;;20.05;55.09
48200;BME280;33990;44.602;10.976;2023-04-22T08:54:58;101017.97;;;20.07;54.90
48200;BME280;33990;44.602;10.976;2023-04-22T08:57:25;101026.88;;;20.07;55.05
48200;BME280;33990;44.602;10.976;2023-04-22T08:59:53;101022.34;;;20.08;54.88
48200;BME280;33990;44.602;10.976;2023-04-22T09:02:23;101016.13;;;20.07;54.96
48200;BME280;33990;44.602;10.976;2023-04-22T09:04:51;101015.13;;;20.08;55.08
48200;BME280;33990;44.602;10.976;2023-04-22T09:07:29;101005.22;;;20.09;54.90
48200;BME280;33990;44.602;10.976;2023-04-22T09:09:58;101015.13;;;20.08;55.12
48200;BME280;33990;44.602;10.976;2023-04-22T09:12:25;101010.50;;;20.10;55.12
48200;BME280;33990;44.602;10.976;2023-04-22T09:14:54;101009.50;;;20.11;55.28
48200;BME280;33990;44.602;10.976;2023-04-22T09:17:32;101012.91;;;20.13;54.97
48200;BME280;33990;44.602;10.976;2023-04-22T09:20:01;101010.09;;;20.15;55.13
48200;BME280;33990;44.602;10.976;2023-04-22T09:22:37;100998.34;;;20.16;55.18
48200;BME280;33990;44.602;10.976;2023-04-22T09:25:06;101001.03;;;20.16;55.21
48200;BME280;33990;44.602;10.976;2023-04-22T09:27:34;101003.56;;;20.17;55.26
48200;BME280;33990;44.602;10.976;2023-04-22T09:30:07;101003.31;;;20.20;55.23
48200;BME280;33990;44.602;10.976;2023-04-22T09:32:34;100997.81;;;20.22;55.57
48200;BME280;33990;44.602;10.976;2023-04-22T09:35:02;101000.38;;;20.23;55.60
48200;BME280;33990;44.602;10.976;2023-04-22T09:37:30;100987.78;;;20.24;55.88
48200;BME280;33990;44.602;10.976;2023-04-22T09:40:17;100981.56;;;20.23;56.09
48200;BME280;33990;44.602;10.976;2023-04-22T09:42:52;100976.91;;;20.25;56.58
48200;BME280;33990;44.602;10.976;2023-04-22T09:45:36;100979.59;;;20.25;56.37
48200;BME280;33990;44.602;10.976;2023-04-22T09:48:08;100975.06;;;20.26;56.34
48200;BME280;33990;44.602;10.976;2023-04-22T09:50:39;100968.69;;;20.27;56.35
48200;BME280;33990;44.602;10.976;2023-04-22T09:53:08;100972.25;;;20.28;56.21
48200;BME280;33990;44.602;10.976;2023-04-22T09:55:40;100973.09;;;20.28;56.22
48200;BME280;33990;44.602;10.976;2023-04-22T09:58:09;100970.53;;;20.27;56.33
48200;BME280;33990;44.602;10.976;2023-04-22T10:03:11;100965.88;;;20.29;56.39
48200;BME280;33990;44.602;10.976;2023-04-22T10:05:39;100961.34;;;20.29;56.37
48200;BME280;33990;44.602;10.976;2023-04-22T10:08:08;100962.22;;;20.30;56.17
48200;BME280;33990;44.602;10.976;2023-04-22T10:10:37;100955.97;;;20.29;56.04
48200;BME280;33990;44.602;10.976;2023-04-22T10:13:05;100959.53;;;20.30;55.99
48200;BME280;33990;44.602;10.976;2023-04-22T10:15:35;100963.66;;;20.34;55.75
48200;BME280;33990;44.602;10.976;2023-04-22T10:18:07;100957.28;;;20.35;55.85
48200;BME280;33990;44.602;10.976;2023-04-22T10:20:38;100958.13;;;20.35;55.73
48200;BME280;33990;44.602;10.976;2023-04-22T10:23:17;100959.81;;;20.36;55.70
48200;BME280;33990;44.602;10.976;2023-04-22T10:25:49;100956.28;;;20.36;55.62
48200;BME280;33990;44.602;10.976;2023-04-22T10:28:19;100953.59;;;20.36;55.58
48200;BME280;33990;44.602;10.976;2023-04-22T10:30:47;100945.53;;;20.36;55.55
48200;BME280;33990;44.602;10.976;2023-04-22T10:41:24;100941.13;;;20.35;57.61
48200;BME280;33990;44.602;10.976;2023-04-22T10:43:58;100942.13;;;20.34;57.79
48200;BME280;33990;44.602;10.976;2023-04-22T10:49:10;100942.13;;;20.34;57.70
48200;BME280;33990;44.602;10.976;2023-04-22T10:57:13;100940.16;;;20.36;58.36
48200;BME280;33990;44.602;10.976;2023-04-22T10:59:51;100928.53;;;20.35;57.69
48200;BME280;33990;44.602;10.976;2023-04-22T11:02:20;100932.09;;;20.36;58.02
48200;BME280;33990;44.602;10.976;2023-04-22T11:04:49;100922.31;;;20.35;58.04
48200;BME280;33990;44.602;10.976;2023-04-22T11:09:50;100908.88;;;20.35;57.97
48200;BME280;33990;44.602;10.976;2023-04-22T11:15:17;100909.72;;;20.35;57.48
48200;BME280;33990;44.602;10.976;2023-04-22T11:17:46;100914.09;;;20.36;57.63
48200;BME280;33990;44.602;10.976;2023-04-22T11:20:15;100907.88;;;20.36;57.61
48200;BME280;33990;44.602;10.976;2023-04-22T11:22:47;100905.19;;;20.36;57.29
48200;BME280;33990;44.602;10.976;2023-04-22T11:25:15;100900.53;;;20.38;57.16
48200;BME280;33990;44.602;10.976;2023-04-22T11:27:42;100907.63;;;20.39;57.18
48200;BME280;33990;44.602;10.976;2023-04-22T11:30:15;100902.25;;;20.39;56.86
48200;BME280;33990;44.602;10.976;2023-04-22T11:35:17;100903.94;;;20.40;56.67
48200;BME280;33990;44.602;10.976;2023-04-22T11:37:50;100894.88;;;20.41;56.09
48200;BME280;33990;44.602;10.976;2023-04-22T11:40:20;100888.53;;;20.42;55.99
48200;BME280;33990;44.602;10.976;2023-04-22T11:42:59;100885.69;;;20.43;56.03
48200;BME280;33990;44.602;10.976;2023-04-22T11:45:28;100891.91;;;20.44;55.61
48200;BME280;33990;44.602;10.976;2023-04-22T11:48:08;100892.75;;;20.44;55.07
48200;BME280;33990;44.602;10.976;2023-04-22T11:50:38;100885.41;;;20.46;55.70
48200;BME280;33990;44.602;10.976;2023-04-22T11:53:19;100885.41;;;20.46;56.15
48200;BME280;33990;44.602;10.976;2023-04-22T11:55:49;100873.81;;;20.46;55.90
48200;BME280;33990;44.602;10.976;2023-04-22T11:58:26;100878.19;;;20.47;56.24
48200;BME280;33990;44.602;10.976;2023-04-22T12:00:56;100881.72;;;20.47;56.18
48200;BME280;33990;44.602;10.976;2023-04-22T12:03:26;100876.34;;;20.47;56.50
48200;BME280;33990;44.602;10.976;2023-04-22T12:05:55;100873.66;;;20.47;56.28
48200;BME280;33990;44.602;10.976;2023-04-22T12:08:36;100863.91;;;20.46;56.42
48200;BME280;33990;44.602;10.976;2023-04-22T12:11:10;100875.50;;;20.47;56.81
48200;BME280;33990;44.602;10.976;2023-04-22T12:18:50;100875.50;;;20.47;56.81
48200;BME280;33990;44.602;10.976;2023-04-22T12:21:20;100870.13;;;20.47;56.56
48200;BME280;33990;44.602;10.976;2023-04-22T12:23:50;100870.13;;;20.47;56.74
48200;BME280;33990;44.602;10.976;2023-04-22T12:26:20;100869.03;;;20.49;56.83
48200;BME280;33990;44.602;10.976;2023-04-22T12:28:53;100860.09;;;20.49;56.87
48200;BME280;33990;44.602;10.976;2023-04-22T12:31:21;100865.47;;;20.49;57.05
48200;BME280;33990;44.602;10.976;2023-04-22T12:33:49;100868.06;;;20.51;57.09
48200;BME280;33990;44.602;10.976;2023-04-22T12:36:18;100863.53;;;20.51;57.17
48200;BME280;33990;44.602;10.976;2023-04-22T12:38:47;100862.69;;;20.51;57.13
48200;BME280;33990;44.602;10.976;2023-04-22T12:41:14;100862.53;;;20.52;57.28
48200;BME280;33990;44.602;10.976;2023-04-22T12:43:42;100861.69;;;20.52;57.46
48200;BME280;33990;44.602;10.976;2023-04-22T12:46:09;100859.84;;;20.52;57.44
48200;BME280;33990;44.602;10.976;2023-04-22T12:48:37;100853.47;;;20.53;57.23
48200;BME280;33990;44.602;10.976;2023-04-22T12:51:05;100857.16;;;20.52;57.42
48200;BME280;33990;44.602;10.976;2023-04-22T12:53:33;100851.75;;;20.52;57.23
48200;BME280;33990;44.602;10.976;2023-04-22T12:56:00;100843.69;;;20.52;57.34
48200;BME280;33990;44.602;10.976;2023-04-22T12:58:28;100846.22;;;20.54;57.56
48200;BME280;33990;44.602;10.976;2023-04-22T13:00:55;100841.84;;;20.53;57.55
48200;BME280;33990;44.602;10.976;2023-04-22T13:03:22;100853.47;;;20.53;57.53
48200;BME280;33990;44.602;10.976;2023-04-22T13:05:51;100841.00;;;20.52;57.67
48200;BME280;33990;44.602;10.976;2023-04-22T13:08:18;100841.00;;;20.52;57.53
48200;BME280;33990;44.602;10.976;2023-04-22T13:10:47;100837.63;;;20.50;57.36
48200;BME280;33990;44.602;10.976;2023-04-22T13:13:14;100835.78;;;20.51;57.26
48200;BME280;33990;44.602;10.976;2023-04-22T13:15:46;100830.53;;;20.49;57.22
48200;BME280;33990;44.602;10.976;2023-04-22T13:18:20;100833.22;;;20.49;57.41
48200;BME280;33990;44.602;10.976;2023-04-22T13:20:48;100828.78;;;20.48;57.24
48200;BME280;33990;44.602;10.976;2023-04-22T13:23:17;100828.78;;;20.48;57.08